Clarks Fork, Missouri
Current Conditions -  °F | °C
As of 8:15 AM on Saturday 20 Dec 2014 (Local Time) from KVER Reporting Station
Haze Haze  
Wind Chill: 33°   Ceiling: 400
Heat Index: 37°   Visibility: 2.5mi
Dew Point: 37°   Wind: 5mph
Humidity: 100%   Direction: 150°SSE
Pressure: 30.22"   Gusts: NA
Location:  38.8814°N, 92.7602°W
Report Text: KVER 201415Z AUTO 15004KT 2 1/2SM BR OVC004 03/03 A3022 RMK AO2 T00280030
Loading
Personal Weather Stations






























Interactive Weather Map New forecast layout! Learn more

10-Day Weather Forecast

Advertisements
Track Severe Weather on mobile